Ana Sayfa
METAR-TAF:

METAR-TAF

Havaalanları :

Mıkolayiv, Ukrayna

Enlem: 47-03-29N, Boylam: 031-55-15E, yükseklik: 56 m

Güncel hava durumu gözlemi

Rapor saat 15:00 UTC de 10 saat ve 1 dakika önce yapıldı.
Rüzgar güney/güneybatıdan 17 kt
Sıcaklık 7°C
Nem 66%
Basınç 1010 hPa
Görüş mesafesi 10 km veya daha fazla
1500 m altında bulut yok ve kümülonimbus yok

METAR: UKON 251500Z 21009MPS CAVOK 07/01 Q1010 R22/090075 NOSIG

Saat: 03:01 (01:01 UTC)

Tahmin

Rapor saat 14:05 UTC de 10 saat ve 56 dakika önce yapıldı.
Ayın 25'si saat 15 UTC'den ayın 25'si saat 24 UTC'ye kadar geçerli Tahmin
Rüzgar güney/güneybatıdan 17 kt ve 31 kt'a kadar ani rüzgarlar
Görüş mesafesi: 2100 m
700 ft yükseklikte parçalı çok bulutlu
2000 ft yükseklikte parçalı çok bulutlu, Kümülonimbus.
Pus

TAF: UKON 251405Z 2515/2524 20009G16MPS 2100 BR BKN007 BKN020CB TX08/2515Z TN03/2524Z

4.000'den fazla havaalanı için hava durumu gözlemleri ve tahminleri (METAR ve TAF raporları).

Kullanılabilir istasyonlar harita üzerinde sarı ve kırmızı noktalarla gösterilir.

İstasyonun adını görmek için fareyi noktanın üzerinde gezdirin.

Sonrasında hava gözlem ve tahminlerini görmek için tıklayın.

Haritayı değiştirmek için: yaklaştırmak için siyah artı işaretli yeşil düğmeye ve uzaklaştırmak için de eksi işaretli düğmeye hızla tıklayın; bitişik haritalar için yeşil okları kullanın.


METAR-TAF: